sensor_id;sensor_type;location;lat;lon;timestamp;pressure;altitude;pressure_sealevel;temperature;humidity
38267;BME280;24063;51.794;19.578;2022-12-10T00:01:13;97504.91;;;-0.84;100.00
38267;BME280;24063;51.794;19.578;2022-12-10T00:02:16;97503.80;;;-0.87;100.00
38267;BME280;24063;51.794;19.578;2022-12-10T00:03:18;97504.65;;;-0.86;100.00
38267;BME280;24063;51.794;19.578;2022-12-10T00:04:20;97504.33;;;-0.86;100.00
38267;BME280;24063;51.794;19.578;2022-12-10T00:05:22;97503.77;;;-0.87;100.00
38267;BME280;24063;51.794;19.578;2022-12-10T00:06:28;97503.67;;;-0.87;100.00
38267;BME280;24063;51.794;19.578;2022-12-10T00:07:30;97507.86;;;-0.87;100.00
38267;BME280;24063;51.794;19.578;2022-12-10T00:08:34;97505.34;;;-0.88;100.00
38267;BME280;24063;51.794;19.578;2022-12-10T00:09:36;97505.50;;;-0.91;100.00
38267;BME280;24063;51.794;19.578;2022-12-10T00:10:41;97506.10;;;-0.92;100.00
38267;BME280;24063;51.794;19.578;2022-12-10T00:11:43;97505.80;;;-0.94;100.00
38267;BME280;24063;51.794;19.578;2022-12-10T00:12:44;97506.14;;;-0.95;100.00
38267;BME280;24063;51.794;19.578;2022-12-10T00:13:48;97507.39;;;-0.94;100.00
38267;BME280;24063;51.794;19.578;2022-12-10T00:14:50;97510.50;;;-0.92;100.00
38267;BME280;24063;51.794;19.578;2022-12-10T00:15:52;97513.50;;;-0.91;100.00
38267;BME280;24063;51.794;19.578;2022-12-10T00:16:54;97513.68;;;-0.92;100.00
38267;BME280;24063;51.794;19.578;2022-12-10T00:17:56;97515.17;;;-0.94;100.00
38267;BME280;24063;51.794;19.578;2022-12-10T00:18:58;97513.61;;;-0.96;100.00
38267;BME280;24063;51.794;19.578;2022-12-10T00:19:59;97516.45;;;-0.97;100.00
38267;BME280;24063;51.794;19.578;2022-12-10T00:21:03;97519.00;;;-0.96;100.00
38267;BME280;24063;51.794;19.578;2022-12-10T00:22:21;97517.80;;;-0.93;100.00
38267;BME280;24063;51.794;19.578;2022-12-10T00:23:23;97517.57;;;-0.92;100.00
38267;BME280;24063;51.794;19.578;2022-12-10T00:24:25;97518.71;;;-0.93;100.00
38267;BME280;24063;51.794;19.578;2022-12-10T00:25:27;97521.34;;;-0.94;100.00
38267;BME280;24063;51.794;19.578;2022-12-10T00:26:32;97523.65;;;-0.95;100.00
38267;BME280;24063;51.794;19.578;2022-12-10T00:27:34;97525.51;;;-0.97;100.00
38267;BME280;24063;51.794;19.578;2022-12-10T00:28:37;97520.27;;;-0.99;100.00
38267;BME280;24063;51.794;19.578;2022-12-10T00:29:39;97518.40;;;-0.99;100.00
38267;BME280;24063;51.794;19.578;2022-12-10T00:30:41;97522.09;;;-1.00;100.00
38267;BME280;24063;51.794;19.578;2022-12-10T00:31:44;97521.06;;;-1.00;100.00
38267;BME280;24063;51.794;19.578;2022-12-10T00:32:46;97516.80;;;-1.01;100.00
38267;BME280;24063;51.794;19.578;2022-12-10T00:33:48;97516.56;;;-1.02;100.00
38267;BME280;24063;51.794;19.578;2022-12-10T00:34:51;97519.25;;;-1.01;100.00
38267;BME280;24063;51.794;19.578;2022-12-10T00:35:53;97521.30;;;-1.00;100.00
38267;BME280;24063;51.794;19.578;2022-12-10T00:36:55;97515.67;;;-0.98;100.00
38267;BME280;24063;51.794;19.578;2022-12-10T00:37:57;97513.46;;;-0.97;100.00
38267;BME280;24063;51.794;19.578;2022-12-10T00:38:59;97513.96;;;-0.97;100.00
38267;BME280;24063;51.794;19.578;2022-12-10T00:40:03;97513.40;;;-0.98;100.00
38267;BME280;24063;51.794;19.578;2022-12-10T00:41:05;97515.17;;;-0.96;100.00
38267;BME280;24063;51.794;19.578;2022-12-10T00:42:07;97513.77;;;-0.95;100.00
38267;BME280;24063;51.794;19.578;2022-12-10T00:43:09;97512.00;;;-0.94;100.00
38267;BME280;24063;51.794;19.578;2022-12-10T00:44:12;97510.67;;;-0.96;100.00
38267;BME280;24063;51.794;19.578;2022-12-10T00:45:14;97512.83;;;-0.97;100.00
38267;BME280;24063;51.794;19.578;2022-12-10T00:46:18;97511.52;;;-0.97;100.00
38267;BME280;24063;51.794;19.578;2022-12-10T00:47:20;97514.33;;;-0.97;100.00
38267;BME280;24063;51.794;19.578;2022-12-10T00:48:23;97509.91;;;-0.97;100.00
38267;BME280;24063;51.794;19.578;2022-12-10T00:49:25;97509.44;;;-0.97;100.00
38267;BME280;24063;51.794;19.578;2022-12-10T00:50:27;97510.31;;;-0.96;100.00
38267;BME280;24063;51.794;19.578;2022-12-10T00:51:31;97512.34;;;-0.95;100.00
38267;BME280;24063;51.794;19.578;2022-12-10T00:52:33;97511.38;;;-0.96;100.00
38267;BME280;24063;51.794;19.578;2022-12-10T00:53:37;97508.08;;;-0.96;100.00
38267;BME280;24063;51.794;19.578;2022-12-10T00:54:40;97514.46;;;-0.98;100.00
38267;BME280;24063;51.794;19.578;2022-12-10T00:55:42;97513.40;;;-0.98;100.00
38267;BME280;24063;51.794;19.578;2022-12-10T00:56:44;97511.36;;;-0.98;100.00
38267;BME280;24063;51.794;19.578;2022-12-10T00:57:46;97511.44;;;-0.98;100.00
38267;BME280;24063;51.794;19.578;2022-12-10T00:58:49;97509.95;;;-0.96;100.00
38267;BME280;24063;51.794;19.578;2022-12-10T00:59:52;97508.95;;;-0.95;100.00
38267;BME280;24063;51.794;19.578;2022-12-10T01:00:54;97508.70;;;-0.95;100.00
38267;BME280;24063;51.794;19.578;2022-12-10T01:01:57;97505.60;;;-0.95;100.00
38267;BME280;24063;51.794;19.578;2022-12-10T01:02:59;97507.14;;;-0.96;100.00
38267;BME280;24063;51.794;19.578;2022-12-10T01:04:14;97506.44;;;-0.96;100.00
38267;BME280;24063;51.794;19.578;2022-12-10T01:05:17;97504.70;;;-0.97;100.00
38267;BME280;24063;51.794;19.578;2022-12-10T01:06:28;97501.22;;;-0.99;100.00
38267;BME280;24063;51.794;19.578;2022-12-10T01:07:30;97500.81;;;-1.00;100.00
38267;BME280;24063;51.794;19.578;2022-12-10T01:08:32;97501.55;;;-0.99;100.00
38267;BME280;24063;51.794;19.578;2022-12-10T01:09:34;97501.45;;;-0.98;100.00
38267;BME280;24063;51.794;19.578;2022-12-10T01:10:36;97499.95;;;-0.99;100.00
38267;BME280;24063;51.794;19.578;2022-12-10T01:11:41;97502.73;;;-0.98;100.00
38267;BME280;24063;51.794;19.578;2022-12-10T01:12:44;97503.59;;;-0.99;100.00
38267;BME280;24063;51.794;19.578;2022-12-10T01:13:48;97508.30;;;-1.00;100.00
38267;BME280;24063;51.794;19.578;2022-12-10T01:14:50;97507.23;;;-1.00;100.00
38267;BME280;24063;51.794;19.578;2022-12-10T01:15:52;97508.96;;;-0.99;100.00
38267;BME280;24063;51.794;19.578;2022-12-10T01:16:57;97510.58;;;-0.98;100.00
38267;BME280;24063;51.794;19.578;2022-12-10T01:17:59;97510.88;;;-0.99;100.00
38267;BME280;24063;51.794;19.578;2022-12-10T01:19:03;97505.67;;;-0.99;100.00
38267;BME280;24063;51.794;19.578;2022-12-10T01:20:05;97509.40;;;-0.98;100.00
38267;BME280;24063;51.794;19.578;2022-12-10T01:21:12;97508.16;;;-0.99;100.00
38267;BME280;24063;51.794;19.578;2022-12-10T01:22:15;97510.81;;;-0.99;100.00
38267;BME280;24063;51.794;19.578;2022-12-10T01:23:17;97509.35;;;-1.00;100.00
38267;BME280;24063;51.794;19.578;2022-12-10T01:24:20;97511.73;;;-1.01;100.00
38267;BME280;24063;51.794;19.578;2022-12-10T01:25:22;97508.38;;;-1.01;100.00
38267;BME280;24063;51.794;19.578;2022-12-10T01:26:27;97511.31;;;-1.00;100.00
38267;BME280;24063;51.794;19.578;2022-12-10T01:27:29;97511.29;;;-1.01;100.00
38267;BME280;24063;51.794;19.578;2022-12-10T01:28:33;97509.83;;;-1.02;100.00
38267;BME280;24063;51.794;19.578;2022-12-10T01:29:35;97508.27;;;-1.03;100.00
38267;BME280;24063;51.794;19.578;2022-12-10T01:30:37;97509.09;;;-1.04;100.00
38267;BME280;24063;51.794;19.578;2022-12-10T01:31:40;97509.81;;;-1.06;100.00
38267;BME280;24063;51.794;19.578;2022-12-10T01:32:42;97510.05;;;-1.05;100.00
38267;BME280;24063;51.794;19.578;2022-12-10T01:33:45;97510.54;;;-1.03;100.00
38267;BME280;24063;51.794;19.578;2022-12-10T01:34:48;97505.68;;;-1.03;100.00
38267;BME280;24063;51.794;19.578;2022-12-10T01:35:50;97503.63;;;-1.04;100.00
38267;BME280;24063;51.794;19.578;2022-12-10T01:36:53;97503.61;;;-1.05;100.00
38267;BME280;24063;51.794;19.578;2022-12-10T01:37:55;97501.94;;;-1.06;100.00
38267;BME280;24063;51.794;19.578;2022-12-10T01:38:59;97503.44;;;-1.05;100.00
38267;BME280;24063;51.794;19.578;2022-12-10T01:40:04;97506.25;;;-1.05;100.00
38267;BME280;24063;51.794;19.578;2022-12-10T01:41:10;97506.50;;;-1.05;100.00
38267;BME280;24063;51.794;19.578;2022-12-10T01:42:14;97509.21;;;-1.04;100.00
38267;BME280;24063;51.794;19.578;2022-12-10T01:43:16;97502.14;;;-1.03;100.00
38267;BME280;24063;51.794;19.578;2022-12-10T01:45:20;97504.26;;;-1.03;100.00
38267;BME280;24063;51.794;19.578;2022-12-10T01:46:24;97500.95;;;-1.03;100.00
38267;BME280;24063;51.794;19.578;2022-12-10T01:47:26;97499.27;;;-1.05;100.00
38267;BME280;24063;51.794;19.578;2022-12-10T01:48:28;97496.83;;;-1.05;100.00
38267;BME280;24063;51.794;19.578;2022-12-10T01:49:38;97490.64;;;-1.06;100.00
38267;BME280;24063;51.794;19.578;2022-12-10T01:50:41;97492.28;;;-1.06;100.00
38267;BME280;24063;51.794;19.578;2022-12-10T01:51:46;97490.98;;;-1.07;100.00
38267;BME280;24063;51.794;19.578;2022-12-10T01:52:48;97490.05;;;-1.08;100.00
38267;BME280;24063;51.794;19.578;2022-12-10T01:53:51;97488.14;;;-1.08;100.00
38267;BME280;24063;51.794;19.578;2022-12-10T01:54:53;97490.73;;;-1.08;100.00
38267;BME280;24063;51.794;19.578;2022-12-10T01:55:55;97490.72;;;-1.08;100.00
38267;BME280;24063;51.794;19.578;2022-12-10T01:57:03;97493.52;;;-1.08;100.00
38267;BME280;24063;51.794;19.578;2022-12-10T01:58:06;97494.09;;;-1.08;100.00
38267;BME280;24063;51.794;19.578;2022-12-10T01:59:09;97493.35;;;-1.08;100.00
38267;BME280;24063;51.794;19.578;2022-12-10T02:00:12;97492.38;;;-1.07;100.00
38267;BME280;24063;51.794;19.578;2022-12-10T02:01:27;97494.29;;;-1.07;100.00
38267;BME280;24063;51.794;19.578;2022-12-10T02:02:44;97493.77;;;-1.06;100.00
38267;BME280;24063;51.794;19.578;2022-12-10T02:08:08;97496.84;;;-1.06;100.00
38267;BME280;24063;51.794;19.578;2022-12-10T02:12:22;97490.64;;;-1.08;100.00
38267;BME280;24063;51.794;19.578;2022-12-10T02:13:38;97490.71;;;-1.08;100.00
38267;BME280;24063;51.794;19.578;2022-12-10T02:15:08;97491.77;;;-1.08;100.00
38267;BME280;24063;51.794;19.578;2022-12-10T02:16:16;97491.89;;;-1.08;100.00
38267;BME280;24063;51.794;19.578;2022-12-10T02:17:29;97492.42;;;-1.09;100.00
38267;BME280;24063;51.794;19.578;2022-12-10T02:20:59;97489.91;;;-1.10;100.00
38267;BME280;24063;51.794;19.578;2022-12-10T02:22:06;97491.84;;;-1.09;100.00
38267;BME280;24063;51.794;19.578;2022-12-10T02:23:28;97493.11;;;-1.10;100.00
38267;BME280;24063;51.794;19.578;2022-12-10T02:24:36;97496.53;;;-1.08;100.00
38267;BME280;24063;51.794;19.578;2022-12-10T02:26:02;97495.92;;;-1.07;100.00
38267;BME280;24063;51.794;19.578;2022-12-10T02:27:33;97498.52;;;-1.06;100.00
38267;BME280;24063;51.794;19.578;2022-12-10T02:29:50;97496.48;;;-1.04;100.00
38267;BME280;24063;51.794;19.578;2022-12-10T02:30:54;97500.26;;;-1.03;100.00
38267;BME280;24063;51.794;19.578;2022-12-10T02:32:40;97500.36;;;-1.04;100.00
38267;BME280;24063;51.794;19.578;2022-12-10T02:33:48;97499.45;;;-1.06;100.00
38267;BME280;24063;51.794;19.578;2022-12-10T02:34:59;97497.99;;;-1.07;100.00
38267;BME280;24063;51.794;19.578;2022-12-10T02:36:11;97496.05;;;-1.08;100.00
38267;BME280;24063;51.794;19.578;2022-12-10T02:37:24;97497.02;;;-1.07;100.00
38267;BME280;24063;51.794;19.578;2022-12-10T02:38:34;97494.90;;;-1.08;100.00
38267;BME280;24063;51.794;19.578;2022-12-10T02:39:46;97495.48;;;-1.08;100.00
38267;BME280;24063;51.794;19.578;2022-12-10T02:40:55;97494.67;;;-1.06;100.00
38267;BME280;24063;51.794;19.578;2022-12-10T02:42:03;97494.73;;;-1.04;100.00
38267;BME280;24063;51.794;19.578;2022-12-10T02:43:09;97490.44;;;-1.04;100.00
38267;BME280;24063;51.794;19.578;2022-12-10T02:44:15;97493.38;;;-1.01;100.00
38267;BME280;24063;51.794;19.578;2022-12-10T02:45:23;97495.16;;;-1.00;100.00
38267;BME280;24063;51.794;19.578;2022-12-10T02:46:28;97500.02;;;-0.98;100.00
38267;BME280;24063;51.794;19.578;2022-12-10T02:47:33;97501.56;;;-0.98;100.00
38267;BME280;24063;51.794;19.578;2022-12-10T02:48:38;97502.05;;;-0.97;100.00
38267;BME280;24063;51.794;19.578;2022-12-10T02:49:47;97502.23;;;-0.97;100.00
38267;BME280;24063;51.794;19.578;2022-12-10T02:50:49;97503.79;;;-0.93;100.00
38267;BME280;24063;51.794;19.578;2022-12-10T02:51:52;97499.54;;;-0.90;100.00
38267;BME280;24063;51.794;19.578;2022-12-10T02:52:54;97496.02;;;-0.87;100.00
38267;BME280;24063;51.794;19.578;2022-12-10T02:54:00;97496.21;;;-0.86;100.00
38267;BME280;24063;51.794;19.578;2022-12-10T02:55:04;97492.44;;;-0.86;100.00
38267;BME280;24063;51.794;19.578;2022-12-10T02:56:20;97491.94;;;-0.85;100.00
38267;BME280;24063;51.794;19.578;2022-12-10T02:59:18;97490.13;;;-0.81;100.00
38267;BME280;24063;51.794;19.578;2022-12-10T03:00:25;97489.77;;;-0.82;100.00
38267;BME280;24063;51.794;19.578;2022-12-10T03:02:06;97489.48;;;-0.84;100.00
38267;BME280;24063;51.794;19.578;2022-12-10T03:04:33;97488.46;;;-0.89;100.00
38267;BME280;24063;51.794;19.578;2022-12-10T03:05:45;97489.08;;;-0.90;100.00
38267;BME280;24063;51.794;19.578;2022-12-10T03:06:57;97487.80;;;-0.89;100.00
38267;BME280;24063;51.794;19.578;2022-12-10T03:08:24;97487.64;;;-0.89;100.00
38267;BME280;24063;51.794;19.578;2022-12-10T03:09:40;97490.27;;;-0.91;100.00
38267;BME280;24063;51.794;19.578;2022-12-10T03:12:32;97490.23;;;-0.90;100.00
38267;BME280;24063;51.794;19.578;2022-12-10T03:13:48;97490.38;;;-0.89;100.00
38267;BME280;24063;51.794;19.578;2022-12-10T03:14:58;97490.02;;;-0.90;100.00
38267;BME280;24063;51.794;19.578;2022-12-10T03:16:03;97492.10;;;-0.92;100.00
38267;BME280;24063;51.794;19.578;2022-12-10T03:17:06;97494.00;;;-0.95;100.00
38267;BME280;24063;51.794;19.578;2022-12-10T03:18:10;97496.04;;;-0.96;100.00
38267;BME280;24063;51.794;19.578;2022-12-10T03:19:18;97496.86;;;-0.97;100.00
38267;BME280;24063;51.794;19.578;2022-12-10T03:20:24;97497.02;;;-0.99;100.00
38267;BME280;24063;51.794;19.578;2022-12-10T03:21:30;97497.10;;;-1.00;100.00
38267;BME280;24063;51.794;19.578;2022-12-10T03:22:38;97495.46;;;-1.00;100.00
38267;BME280;24063;51.794;19.578;2022-12-10T03:23:46;97492.48;;;-1.01;100.00
38267;BME280;24063;51.794;19.578;2022-12-10T03:24:50;97494.30;;;-1.01;100.00
38267;BME280;24063;51.794;19.578;2022-12-10T03:25:54;97492.35;;;-1.01;100.00
38267;BME280;24063;51.794;19.578;2022-12-10T03:26:57;97498.98;;;-1.02;100.00
38267;BME280;24063;51.794;19.578;2022-12-10T03:28:00;97498.92;;;-1.01;100.00
38267;BME280;24063;51.794;19.578;2022-12-10T03:29:09;97497.98;;;-1.01;100.00
38267;BME280;24063;51.794;19.578;2022-12-10T03:30:13;97497.64;;;-1.02;100.00
38267;BME280;24063;51.794;19.578;2022-12-10T03:31:17;97495.21;;;-1.04;100.00
38267;BME280;24063;51.794;19.578;2022-12-10T03:32:26;97492.86;;;-1.04;100.00
38267;BME280;24063;51.794;19.578;2022-12-10T03:33:30;97491.45;;;-1.06;100.00
38267;BME280;24063;51.794;19.578;2022-12-10T03:34:34;97493.25;;;-1.06;100.00
38267;BME280;24063;51.794;19.578;2022-12-10T03:35:38;97488.20;;;-1.06;100.00
38267;BME280;24063;51.794;19.578;2022-12-10T03:36:42;97492.48;;;-1.06;100.00
38267;BME280;24063;51.794;19.578;2022-12-10T03:37:46;97495.58;;;-1.06;100.00
38267;BME280;24063;51.794;19.578;2022-12-10T03:38:49;97491.44;;;-1.08;100.00
38267;BME280;24063;51.794;19.578;2022-12-10T03:39:52;97495.44;;;-1.10;100.00
38267;BME280;24063;51.794;19.578;2022-12-10T03:40:54;97491.48;;;-1.11;100.00
38267;BME280;24063;51.794;19.578;2022-12-10T03:41:56;97498.75;;;-1.11;100.00
38267;BME280;24063;51.794;19.578;2022-12-10T03:42:58;97497.70;;;-1.12;100.00
38267;BME280;24063;51.794;19.578;2022-12-10T03:44:00;97503.36;;;-1.13;100.00
38267;BME280;24063;51.794;19.578;2022-12-10T03:45:03;97503.45;;;-1.14;100.00
38267;BME280;24063;51.794;19.578;2022-12-10T03:46:05;97508.34;;;-1.13;100.00
38267;BME280;24063;51.794;19.578;2022-12-10T03:47:11;97509.45;;;-1.14;100.00
38267;BME280;24063;51.794;19.578;2022-12-10T03:48:14;97510.34;;;-1.14;100.00
38267;BME280;24063;51.794;19.578;2022-12-10T03:49:16;97508.90;;;-1.12;100.00
38267;BME280;24063;51.794;19.578;2022-12-10T03:50:18;97509.08;;;-1.11;100.00
38267;BME280;24063;51.794;19.578;2022-12-10T03:51:20;97510.52;;;-1.11;100.00
38267;BME280;24063;51.794;19.578;2022-12-10T03:52:22;97509.70;;;-1.12;100.00
38267;BME280;24063;51.794;19.578;2022-12-10T03:53:24;97510.01;;;-1.10;100.00
38267;BME280;24063;51.794;19.578;2022-12-10T03:54:26;97512.40;;;-1.10;100.00
38267;BME280;24063;51.794;19.578;2022-12-10T03:55:28;97509.40;;;-1.11;100.00
38267;BME280;24063;51.794;19.578;2022-12-10T03:56:30;97509.00;;;-1.12;100.00
38267;BME280;24063;51.794;19.578;2022-12-10T03:57:32;97506.35;;;-1.12;100.00
38267;BME280;24063;51.794;19.578;2022-12-10T03:58:34;97507.16;;;-1.11;100.00
38267;BME280;24063;51.794;19.578;2022-12-10T03:59:36;97504.89;;;-1.11;100.00
38267;BME280;24063;51.794;19.578;2022-12-10T04:00:38;97504.38;;;-1.12;100.00
38267;BME280;24063;51.794;19.578;2022-12-10T04:01:40;97500.92;;;-1.12;100.00
38267;BME280;24063;51.794;19.578;2022-12-10T04:02:42;97504.10;;;-1.13;100.00
38267;BME280;24063;51.794;19.578;2022-12-10T04:03:44;97504.15;;;-1.13;100.00
38267;BME280;24063;51.794;19.578;2022-12-10T04:04:46;97508.46;;;-1.13;100.00
38267;BME280;24063;51.794;19.578;2022-12-10T04:05:48;97506.02;;;-1.13;100.00
38267;BME280;24063;51.794;19.578;2022-12-10T04:06:50;97510.23;;;-1.14;100.00
38267;BME280;24063;51.794;19.578;2022-12-10T04:07:52;97509.67;;;-1.16;100.00
38267;BME280;24063;51.794;19.578;2022-12-10T04:08:54;97511.59;;;-1.13;100.00
38267;BME280;24063;51.794;19.578;2022-12-10T04:09:59;97513.75;;;-1.13;100.00
38267;BME280;24063;51.794;19.578;2022-12-10T04:11:07;97513.13;;;-1.12;100.00
38267;BME280;24063;51.794;19.578;2022-12-10T04:12:09;97516.77;;;-1.11;100.00
38267;BME280;24063;51.794;19.578;2022-12-10T04:13:11;97521.95;;;-1.10;100.00
38267;BME280;24063;51.794;19.578;2022-12-10T04:14:31;97517.68;;;-1.08;100.00
38267;BME280;24063;51.794;19.578;2022-12-10T04:15:51;97523.47;;;-1.08;100.00
38267;BME280;24063;51.794;19.578;2022-12-10T04:17:12;97523.87;;;-1.09;100.00
38267;BME280;24063;51.794;19.578;2022-12-10T04:18:14;97524.77;;;-1.11;100.00
38267;BME280;24063;51.794;19.578;2022-12-10T04:19:17;97523.45;;;-1.13;100.00
38267;BME280;24063;51.794;19.578;2022-12-10T04:20:19;97525.52;;;-1.14;100.00
38267;BME280;24063;51.794;19.578;2022-12-10T04:21:41;97528.34;;;-1.15;100.00
38267;BME280;24063;51.794;19.578;2022-12-10T04:23:01;97525.61;;;-1.16;100.00
38267;BME280;24063;51.794;19.578;2022-12-10T04:24:24;97528.00;;;-1.16;100.00
38267;BME280;24063;51.794;19.578;2022-12-10T04:25:45;97530.03;;;-1.17;100.00
38267;BME280;24063;51.794;19.578;2022-12-10T04:27:09;97529.14;;;-1.17;100.00
38267;BME280;24063;51.794;19.578;2022-12-10T04:28:12;97528.20;;;-1.17;100.00
38267;BME280;24063;51.794;19.578;2022-12-10T04:29:13;97526.14;;;-1.16;100.00
38267;BME280;24063;51.794;19.578;2022-12-10T04:30:15;97525.83;;;-1.16;100.00
38267;BME280;24063;51.794;19.578;2022-12-10T04:31:17;97527.46;;;-1.16;100.00
38267;BME280;24063;51.794;19.578;2022-12-10T04:32:19;97526.68;;;-1.16;100.00
38267;BME280;24063;51.794;19.578;2022-12-10T04:33:21;97526.86;;;-1.15;100.00
38267;BME280;24063;51.794;19.578;2022-12-10T04:34:24;97528.77;;;-1.13;100.00
38267;BME280;24063;51.794;19.578;2022-12-10T04:35:26;97527.27;;;-1.14;100.00
38267;BME280;24063;51.794;19.578;2022-12-10T04:36:28;97525.20;;;-1.11;100.00
38267;BME280;24063;51.794;19.578;2022-12-10T04:37:30;97523.19;;;-1.11;100.00
38267;BME280;24063;51.794;19.578;2022-12-10T04:38:32;97521.64;;;-1.11;100.00
38267;BME280;24063;51.794;19.578;2022-12-10T04:39:34;97526.12;;;-1.10;100.00
38267;BME280;24063;51.794;19.578;2022-12-10T04:40:36;97527.75;;;-1.11;100.00
38267;BME280;24063;51.794;19.578;2022-12-10T04:41:43;97530.49;;;-1.11;100.00
38267;BME280;24063;51.794;19.578;2022-12-10T04:42:45;97528.51;;;-1.12;100.00
38267;BME280;24063;51.794;19.578;2022-12-10T04:43:47;97532.22;;;-1.12;100.00
38267;BME280;24063;51.794;19.578;2022-12-10T04:44:49;97535.33;;;-1.11;100.00
38267;BME280;24063;51.794;19.578;2022-12-10T04:45:55;97530.85;;;-1.10;100.00
38267;BME280;24063;51.794;19.578;2022-12-10T04:46:57;97533.02;;;-1.11;100.00
38267;BME280;24063;51.794;19.578;2022-12-10T04:47:59;97527.11;;;-1.11;100.00
38267;BME280;24063;51.794;19.578;2022-12-10T04:49:02;97529.31;;;-1.12;100.00
38267;BME280;24063;51.794;19.578;2022-12-10T04:50:05;97527.82;;;-1.12;100.00
38267;BME280;24063;51.794;19.578;2022-12-10T04:51:07;97526.90;;;-1.11;100.00
38267;BME280;24063;51.794;19.578;2022-12-10T04:52:12;97527.29;;;-1.10;100.00
38267;BME280;24063;51.794;19.578;2022-12-10T04:53:14;97531.70;;;-1.10;100.00
38267;BME280;24063;51.794;19.578;2022-12-10T04:54:16;97536.23;;;-1.11;100.00
38267;BME280;24063;51.794;19.578;2022-12-10T04:55:18;97534.77;;;-1.10;100.00
38267;BME280;24063;51.794;19.578;2022-12-10T04:56:20;97535.45;;;-1.10;100.00
38267;BME280;24063;51.794;19.578;2022-12-10T04:57:22;97534.27;;;-1.09;100.00
38267;BME280;24063;51.794;19.578;2022-12-10T04:58:24;97535.29;;;-1.10;100.00
38267;BME280;24063;51.794;19.578;2022-12-10T04:59:25;97535.31;;;-1.12;100.00
38267;BME280;24063;51.794;19.578;2022-12-10T05:00:27;97531.80;;;-1.14;100.00
38267;BME280;24063;51.794;19.578;2022-12-10T05:01:30;97534.46;;;-1.16;100.00
38267;BME280;24063;51.794;19.578;2022-12-10T05:02:32;97532.39;;;-1.16;100.00
38267;BME280;24063;51.794;19.578;2022-12-10T05:03:35;97532.36;;;-1.16;100.00
38267;BME280;24063;51.794;19.578;2022-12-10T05:04:37;97528.73;;;-1.17;100.00
38267;BME280;24063;51.794;19.578;2022-12-10T05:05:38;97527.39;;;-1.17;100.00
38267;BME280;24063;51.794;19.578;2022-12-10T05:06:41;97527.84;;;-1.18;100.00
38267;BME280;24063;51.794;19.578;2022-12-10T05:07:43;97522.81;;;-1.17;100.00
38267;BME280;24063;51.794;19.578;2022-12-10T05:08:46;97525.66;;;-1.16;100.00
38267;BME280;24063;51.794;19.578;2022-12-10T05:09:48;97525.98;;;-1.16;100.00
38267;BME280;24063;51.794;19.578;2022-12-10T05:10:50;97525.77;;;-1.16;100.00
38267;BME280;24063;51.794;19.578;2022-12-10T05:11:52;97526.81;;;-1.13;100.00
38267;BME280;24063;51.794;19.578;2022-12-10T05:12:54;97527.86;;;-1.09;100.00
38267;BME280;24063;51.794;19.578;2022-12-10T05:13:57;97527.01;;;-1.07;100.00
38267;BME280;24063;51.794;19.578;2022-12-10T05:14:59;97529.10;;;-1.05;100.00
38267;BME280;24063;51.794;19.578;2022-12-10T05:16:02;97530.73;;;-1.06;100.00
38267;BME280;24063;51.794;19.578;2022-12-10T05:17:05;97534.95;;;-1.07;100.00
38267;BME280;24063;51.794;19.578;2022-12-10T05:18:07;97529.77;;;-1.09;100.00
38267;BME280;24063;51.794;19.578;2022-12-10T05:19:10;97530.75;;;-1.07;100.00
38267;BME280;24063;51.794;19.578;2022-12-10T05:20:12;97532.69;;;-1.08;100.00
38267;BME280;24063;51.794;19.578;2022-12-10T05:21:17;97533.75;;;-1.11;100.00
38267;BME280;24063;51.794;19.578;2022-12-10T05:22:18;97535.52;;;-1.12;100.00
38267;BME280;24063;51.794;19.578;2022-12-10T05:23:43;97537.80;;;-1.14;100.00
38267;BME280;24063;51.794;19.578;2022-12-10T05:24:45;97539.40;;;-1.16;100.00
38267;BME280;24063;51.794;19.578;2022-12-10T05:25:46;97540.73;;;-1.18;100.00
38267;BME280;24063;51.794;19.578;2022-12-10T05:26:57;97542.73;;;-1.19;100.00
38267;BME280;24063;51.794;19.578;2022-12-10T05:27:59;97542.27;;;-1.20;100.00
38267;BME280;24063;51.794;19.578;2022-12-10T05:29:01;97542.90;;;-1.20;100.00
38267;BME280;24063;51.794;19.578;2022-12-10T05:30:03;97544.90;;;-1.21;100.00
38267;BME280;24063;51.794;19.578;2022-12-10T05:31:05;97545.88;;;-1.20;100.00
38267;BME280;24063;51.794;19.578;2022-12-10T05:32:12;97548.52;;;-1.20;100.00
38267;BME280;24063;51.794;19.578;2022-12-10T05:33:14;97546.84;;;-1.19;100.00
38267;BME280;24063;51.794;19.578;2022-12-10T05:34:16;97547.90;;;-1.20;100.00
38267;BME280;24063;51.794;19.578;2022-12-10T05:35:18;97548.89;;;-1.18;100.00
38267;BME280;24063;51.794;19.578;2022-12-10T05:36:23;97549.66;;;-1.17;100.00
38267;BME280;24063;51.794;19.578;2022-12-10T05:37:26;97547.42;;;-1.17;100.00
38267;BME280;24063;51.794;19.578;2022-12-10T05:38:30;97552.60;;;-1.18;100.00
38267;BME280;24063;51.794;19.578;2022-12-10T05:39:32;97556.09;;;-1.19;100.00
38267;BME280;24063;51.794;19.578;2022-12-10T05:40:36;97555.00;;;-1.20;100.00
38267;BME280;24063;51.794;19.578;2022-12-10T05:41:39;97557.41;;;-1.20;100.00
38267;BME280;24063;51.794;19.578;2022-12-10T05:42:41;97557.83;;;-1.21;100.00
38267;BME280;24063;51.794;19.578;2022-12-10T05:43:43;97561.80;;;-1.21;100.00
38267;BME280;24063;51.794;19.578;2022-12-10T05:44:45;97560.73;;;-1.21;100.00
38267;BME280;24063;51.794;19.578;2022-12-10T05:45:47;97559.77;;;-1.21;100.00
38267;BME280;24063;51.794;19.578;2022-12-10T05:46:49;97562.75;;;-1.21;100.00
38267;BME280;24063;51.794;19.578;2022-12-10T05:47:50;97559.10;;;-1.21;100.00
38267;BME280;24063;51.794;19.578;2022-12-10T05:48:53;97564.02;;;-1.20;100.00
38267;BME280;24063;51.794;19.578;2022-12-10T05:49:55;97564.85;;;-1.20;100.00
38267;BME280;24063;51.794;19.578;2022-12-10T05:50:57;97565.52;;;-1.23;100.00
38267;BME280;24063;51.794;19.578;2022-12-10T05:51:59;97569.33;;;-1.23;100.00
38267;BME280;24063;51.794;19.578;2022-12-10T05:53:01;97572.35;;;-1.23;100.00